KCKC

Grand Marais / Cook County Airport

Grand Marais, Minnesota, USA
METAR KCKC 230955Z AUTO 03006KT 3/4SM SN OVC003 M07/M09 A3004 RMK AO2
Observed Flight Rules
Feb-23 @ 09:55 UTC (30 minutes ago) Instrument Flight Rules
Wind Visibility Clouds Conditions
30° at 6 knots 3/4 miles
  • Overcast at 300' AGL
  • Snow
Temperatures Readings
Current -7°C / 19°F
Dewpoint -9°C / 16°F
Humidity 86%
Altimeter 30.04" Hg
Pressure 1017 hPa
Elevation 548
METAR KCKC 230955Z AUTO 03006KT 3/4SM SN OVC003 M07/M09 A3004 RMK AO2
Observed Flight Rules
Feb-23 @ 09:55 UTC
(30 minutes ago)
LIFR
Wind Visibility
30° at 6 knots 3/4 miles
Clouds
  • Overcast at 300' AGL
Conditions
  • Snow
Temperature Dewpoint
-7°C / 19°F -9°C / 16°F
Humidity Altimeter Pressure
86% 30.04" Hg 1017 hPa